»·PEaware :: DAL1678 KSLC-KBOI

DAL1678 :: KSLC-KBOI

FLIGHT INFORMATION

Flight Status: Arrived
Operator:
Delta Air Lines
More flights by this operator :: More flights under this callsign
Pilot: Joe P. (13940)
Aircraft: MCDONNELL-DOUGLAS MD-82
(MD82)
More flights by this aircraft type
Origin: KSLC Salt Lake City Intl
United States
Destination: KBOI Boise Air Terminal/Gowen
United States
More flights between these airports :: More routes between these airports
Route: CGULL1 TWF BROPH SPUUD3
File this flight plan on PilotEdge
Remarks: SEL / ABCD KTWF -PBN / B3B4B5D3D4 DOF / 180703 REG / N904DL
Altitude:
(Current/Filed)
320ft
Speed:
(Current/Filed)
465kts
Departed: 02-Jul-18 07:52 PM
Arrived: 02-Jul-18 08:38 PM
Distance/Time
Traveled:
252nm/0:46
Distance/Time
To Go:
Arrived

Flight Plot

Page will automatically refresh every two minutes.

Flight plan parsing failed; only flown route is shown


Map Options




Map Legend


Flown Route
Filed Route
Departure Airport
Arrival Airport
Navaid (VOR, NDB)
Fix

Horizontal Profiles

Position Reports

Time Latitude Longitude Heading Altitude Ground
Speed
02-Jul-18 18:59 40.785586 -111.978056 231 4236ft 0kts
02-Jul-18 19:00 40.785586 -111.978056 231 4236ft 0kts
02-Jul-18 19:01 40.785586 -111.978056 231 4236ft 0kts
02-Jul-18 19:02 40.785586 -111.978056 231 4236ft 0kts
02-Jul-18 19:03 40.785586 -111.978056 231 4236ft 0kts
02-Jul-18 19:04 40.785586 -111.978056 231 4236ft 0kts
02-Jul-18 19:05 40.785586 -111.978056 231 4236ft 0kts
02-Jul-18 19:06 40.785586 -111.978056 231 4236ft 0kts
02-Jul-18 19:07 40.785586 -111.978056 231 4236ft 0kts
02-Jul-18 19:08 40.785586 -111.978056 231 4236ft 0kts
02-Jul-18 19:09 40.785586 -111.978056 231 4236ft 0kts
02-Jul-18 19:10 40.785586 -111.978056 231 4236ft 0kts
02-Jul-18 19:11 40.785586 -111.978056 231 4236ft 0kts
02-Jul-18 19:12 40.785586 -111.978056 231 4236ft 0kts
02-Jul-18 19:13 40.785586 -111.978056 231 4236ft 0kts
02-Jul-18 19:14 40.785586 -111.978056 231 4236ft 0kts
02-Jul-18 19:15 40.785586 -111.978056 231 4236ft 0kts
02-Jul-18 19:16 40.785586 -111.978056 231 4236ft 0kts
02-Jul-18 19:17 40.785586 -111.978056 231 4236ft 0kts
02-Jul-18 19:18 40.785586 -111.978056 231 4236ft 0kts
02-Jul-18 19:19 40.785586 -111.978056 231 4236ft 0kts
02-Jul-18 19:20 40.785586 -111.978056 231 4236ft 0kts
02-Jul-18 19:21 40.785586 -111.978056 231 4236ft 0kts
02-Jul-18 19:22 40.785586 -111.978056 231 4236ft 0kts
02-Jul-18 19:23 40.785586 -111.978056 231 4236ft 0kts
02-Jul-18 19:24 40.785586 -111.978056 231 4236ft 0kts
02-Jul-18 19:25 40.785586 -111.978056 231 4236ft 0kts
02-Jul-18 19:26 40.785586 -111.978056 231 4236ft 0kts
02-Jul-18 19:27 40.785586 -111.978056 231 4236ft 0kts
02-Jul-18 19:28 40.785586 -111.978056 231 4236ft 0kts
02-Jul-18 19:29 40.785586 -111.978056 231 4236ft 0kts
02-Jul-18 19:30 40.785586 -111.978056 231 4236ft 0kts
02-Jul-18 19:31 40.785586 -111.978056 231 4236ft 0kts
02-Jul-18 19:32 40.785586 -111.978056 231 4236ft 0kts
02-Jul-18 19:33 40.785586 -111.978056 231 4236ft 0kts
02-Jul-18 19:34 40.785586 -111.978056 231 4236ft 0kts
02-Jul-18 19:35 40.785586 -111.978056 231 4236ft 0kts
02-Jul-18 19:35 40.785586 -111.978056 231 4236ft 0kts
02-Jul-18 19:36 40.785586 -111.978056 231 4236ft 0kts
02-Jul-18 19:37 40.785586 -111.978056 231 4236ft 0kts
02-Jul-18 19:38 40.785586 -111.978056 231 4236ft 0kts
02-Jul-18 19:39 40.785586 -111.978056 231 4236ft 0kts
02-Jul-18 19:40 40.785877 -111.977649 215 4236ft 2kts
02-Jul-18 19:41 40.786654 -111.977399 172 4236ft 2kts
02-Jul-18 19:42 40.786740 -111.977417 169 4236ft 0kts
02-Jul-18 19:43 40.786740 -111.977417 169 4236ft 0kts
02-Jul-18 19:44 40.786740 -111.977417 169 4236ft 0kts
02-Jul-18 19:45 40.786677 -111.977399 168 4236ft 0kts
02-Jul-18 19:46 40.786675 -111.977398 168 4236ft 0kts
02-Jul-18 19:47 40.786673 -111.977398 168 4236ft 0kts
02-Jul-18 19:48 40.782875 -111.976185 176 4236ft 27kts
02-Jul-18 19:49 40.776883 -111.975177 176 4236ft 16kts
02-Jul-18 19:50 40.774586 -111.974845 155 4236ft 0kts
02-Jul-18 19:51 40.774971 -111.973333 47 4236ft 4kts
02-Jul-18 19:52 40.795666 -111.975554 355 4238ft 168kts
02-Jul-18 19:53 40.836143 -112.001688 296 5896ft 179kts
02-Jul-18 19:54 40.862420 -112.060047 306 7260ft 203kts
02-Jul-18 19:55 40.898087 -112.121467 304 8907ft 224kts
02-Jul-18 19:56 40.942165 -112.199390 304 10515ft 304kts
02-Jul-18 19:57 40.996539 -112.295232 304 12892ft 346kts
02-Jul-18 19:58 41.057720 -112.402170 308 15414ft 381kts
02-Jul-18 19:59 41.144615 -112.490089 322 17945ft 401kts
02-Jul-18 20:00 41.236683 -112.574776 317 20478ft 402kts
02-Jul-18 20:01 41.317111 -112.670227 306 23099ft 381kts
02-Jul-18 20:02 41.387324 -112.778081 306 24808ft 387kts
02-Jul-18 20:03 41.458708 -112.884970 305 26803ft 383kts
02-Jul-18 20:04 41.527682 -112.990811 305 28791ft 373kts
02-Jul-18 20:05 41.594280 -113.093693 304 30781ft 357kts
02-Jul-18 20:06 41.658616 -113.192750 305 31959ft 360kts
02-Jul-18 20:07 41.727103 -113.298581 305 31962ft 391kts
02-Jul-18 20:08 41.800543 -113.412447 305 31968ft 414kts
02-Jul-18 20:09 41.875811 -113.529787 305 31979ft 413kts
02-Jul-18 20:10 41.950928 -113.647154 305 31986ft 413kts
02-Jul-18 20:11 42.025672 -113.764597 305 31992ft 413kts
02-Jul-18 20:12 42.100530 -113.882135 305 32001ft 413kts
02-Jul-18 20:13 42.175368 -113.999755 305 32002ft 413kts
02-Jul-18 20:14 42.249328 -114.118124 304 32011ft 413kts
02-Jul-18 20:15 42.323555 -114.236035 304 32012ft 411kts
02-Jul-18 20:16 42.397534 -114.354692 304 32016ft 412kts
02-Jul-18 20:17 42.471391 -114.473202 304 32018ft 412kts
02-Jul-18 20:18 42.545668 -114.591551 304 32017ft 411kts
02-Jul-18 20:19 42.619492 -114.709842 304 31989ft 411kts
02-Jul-18 20:20 42.693504 -114.828369 304 29618ft 411kts
02-Jul-18 20:21 42.768878 -114.941958 308 27149ft 395kts
02-Jul-18 20:22 42.843280 -115.048428 308 24664ft 381kts
02-Jul-18 20:23 42.914955 -115.151738 308 22250ft 368kts
02-Jul-18 20:24 42.983859 -115.251330 308 19955ft 352kts
02-Jul-18 20:25 43.049544 -115.346787 308 17731ft 334kts
02-Jul-18 20:26 43.111626 -115.437536 308 15602ft 318kts
02-Jul-18 20:27 43.175029 -115.531567 310 12037ft 351kts
02-Jul-18 20:28 43.234094 -115.618491 310 11003ft 278kts
02-Jul-18 20:29 43.285257 -115.691685 314 9932ft 261kts
02-Jul-18 20:30 43.338814 -115.760341 315 9023ft 261kts
02-Jul-18 20:31 43.389527 -115.827879 309 8549ft 254kts
02-Jul-18 20:32 43.433290 -115.902203 307 7130ft 247kts
02-Jul-18 20:33 43.472987 -115.977776 303 6075ft 221kts
02-Jul-18 20:34 43.501151 -116.039047 294 5980ft 176kts
02-Jul-18 20:35 43.523028 -116.100145 299 5619ft 176kts
02-Jul-18 20:36 43.544810 -116.163215 295 3642ft 177kts
02-Jul-18 20:37 43.563076 -116.216155 296 2843ft 62kts
02-Jul-18 20:38 43.566296 -116.223133 21 2843ft 0kts
02-Jul-18 20:39 43.566299 -116.223131 21 2843ft 0kts
02-Jul-18 20:40 43.566286 -116.219616 97 2843ft 14kts
02-Jul-18 20:41 43.567036 -116.216279 346 2843ft 14kts
02-Jul-18 20:42 43.567857 -116.219404 227 2843ft 0kts
02-Jul-18 20:43 43.567855 -116.219406 227 2843ft 0kts
02-Jul-18 20:44 43.567855 -116.219406 227 2843ft 0kts
02-Jul-18 20:45 43.567855 -116.219406 227 2843ft 0kts
02-Jul-18 20:46 43.567855 -116.219406 227 2843ft 0kts
02-Jul-18 20:47 43.567855 -116.219406 227 2843ft 0kts
02-Jul-18 20:48 43.567855 -116.219406 227 2843ft 0kts
02-Jul-18 20:49 43.567855 -116.219406 227 2843ft 0kts

Navigation Log

Ident Type
Flight plan parsing failed, navigation log unavailable